sensor_id;sensor_type;location;lat;lon;timestamp;P1;durP1;ratioP1;P2;durP2;ratioP2
5225;SDS011;2632;51.666;7.146;2022-09-29T00:02:04;1.77;;;1.47;;
5225;SDS011;2632;51.666;7.146;2022-09-29T00:04:31;3.57;;;1.67;;
5225;SDS011;2632;51.666;7.146;2022-09-29T00:06:57;1.20;;;1.07;;
5225;SDS011;2632;51.666;7.146;2022-09-29T00:09:25;2.30;;;1.50;;
5225;SDS011;2632;51.666;7.146;2022-09-29T00:11:54;1.63;;;1.30;;
5225;SDS011;2632;51.666;7.146;2022-09-29T00:14:22;2.30;;;1.50;;
5225;SDS011;2632;51.666;7.146;2022-09-29T00:16:49;1.57;;;1.30;;
5225;SDS011;2632;51.666;7.146;2022-09-29T00:19:18;2.20;;;1.40;;
5225;SDS011;2632;51.666;7.146;2022-09-29T00:21:44;3.37;;;2.10;;
5225;SDS011;2632;51.666;7.146;2022-09-29T00:24:13;1.90;;;1.50;;
5225;SDS011;2632;51.666;7.146;2022-09-29T00:27:27;2.33;;;1.63;;
5225;SDS011;2632;51.666;7.146;2022-09-29T00:29:54;2.63;;;1.40;;
5225;SDS011;2632;51.666;7.146;2022-09-29T00:32:20;3.23;;;1.40;;
5225;SDS011;2632;51.666;7.146;2022-09-29T00:34:47;2.00;;;1.60;;
5225;SDS011;2632;51.666;7.146;2022-09-29T00:37:16;2.00;;;1.30;;
5225;SDS011;2632;51.666;7.146;2022-09-29T00:39:42;1.53;;;1.30;;
5225;SDS011;2632;51.666;7.146;2022-09-29T00:42:10;2.10;;;1.43;;
5225;SDS011;2632;51.666;7.146;2022-09-29T00:47:44;1.80;;;1.57;;
5225;SDS011;2632;51.666;7.146;2022-09-29T00:50:25;1.50;;;1.40;;
5225;SDS011;2632;51.666;7.146;2022-09-29T00:53:13;1.90;;;1.40;;
5225;SDS011;2632;51.666;7.146;2022-09-29T00:55:51;2.20;;;1.70;;
5225;SDS011;2632;51.666;7.146;2022-09-29T00:58:30;1.70;;;1.60;;
5225;SDS011;2632;51.666;7.146;2022-09-29T01:01:05;3.47;;;1.57;;
5225;SDS011;2632;51.666;7.146;2022-09-29T01:03:33;1.60;;;1.50;;
5225;SDS011;2632;51.666;7.146;2022-09-29T01:06:06;1.80;;;1.43;;
5225;SDS011;2632;51.666;7.146;2022-09-29T01:11:23;2.30;;;1.50;;
5225;SDS011;2632;51.666;7.146;2022-09-29T01:13:50;2.43;;;1.23;;
5225;SDS011;2632;51.666;7.146;2022-09-29T01:16:19;3.00;;;1.60;;
5225;SDS011;2632;51.666;7.146;2022-09-29T01:18:46;3.13;;;1.73;;
5225;SDS011;2632;51.666;7.146;2022-09-29T01:27:15;1.83;;;1.63;;
5225;SDS011;2632;51.666;7.146;2022-09-29T01:32:38;2.27;;;1.47;;
5225;SDS011;2632;51.666;7.146;2022-09-29T01:43:31;2.00;;;1.23;;
5225;SDS011;2632;51.666;7.146;2022-09-29T01:46:14;3.70;;;1.80;;
5225;SDS011;2632;51.666;7.146;2022-09-29T01:49:02;3.97;;;1.40;;
5225;SDS011;2632;51.666;7.146;2022-09-29T01:51:39;5.27;;;1.83;;
5225;SDS011;2632;51.666;7.146;2022-09-29T01:54:13;1.77;;;1.67;;
5225;SDS011;2632;51.666;7.146;2022-09-29T01:56:49;1.70;;;1.60;;
5225;SDS011;2632;51.666;7.146;2022-09-29T01:59:38;2.80;;;1.33;;
5225;SDS011;2632;51.666;7.146;2022-09-29T02:02:09;1.40;;;1.30;;
5225;SDS011;2632;51.666;7.146;2022-09-29T02:04:45;2.00;;;1.60;;
5225;SDS011;2632;51.666;7.146;2022-09-29T02:07:18;2.60;;;1.63;;
5225;SDS011;2632;51.666;7.146;2022-09-29T02:09:51;2.17;;;1.80;;
5225;SDS011;2632;51.666;7.146;2022-09-29T02:12:29;3.63;;;1.33;;
5225;SDS011;2632;51.666;7.146;2022-09-29T02:14:58;3.10;;;1.73;;
5225;SDS011;2632;51.666;7.146;2022-09-29T02:17:29;2.67;;;1.70;;
5225;SDS011;2632;51.666;7.146;2022-09-29T02:19:59;2.00;;;1.80;;
5225;SDS011;2632;51.666;7.146;2022-09-29T02:22:26;2.20;;;1.57;;
5225;SDS011;2632;51.666;7.146;2022-09-29T02:24:53;3.77;;;1.43;;
5225;SDS011;2632;51.666;7.146;2022-09-29T02:27:24;1.63;;;1.53;;
5225;SDS011;2632;51.666;7.146;2022-09-29T02:29:53;2.23;;;1.50;;
5225;SDS011;2632;51.666;7.146;2022-09-29T02:32:21;2.67;;;1.70;;
5225;SDS011;2632;51.666;7.146;2022-09-29T02:34:48;2.27;;;2.07;;
5225;SDS011;2632;51.666;7.146;2022-09-29T02:37:22;2.07;;;1.60;;
5225;SDS011;2632;51.666;7.146;2022-09-29T02:39:58;2.20;;;1.57;;
5225;SDS011;2632;51.666;7.146;2022-09-29T02:42:53;2.70;;;1.43;;
5225;SDS011;2632;51.666;7.146;2022-09-29T02:45:23;1.60;;;1.50;;
5225;SDS011;2632;51.666;7.146;2022-09-29T02:51:00;2.70;;;1.70;;
5225;SDS011;2632;51.666;7.146;2022-09-29T02:53:50;1.87;;;1.67;;
5225;SDS011;2632;51.666;7.146;2022-09-29T02:56:28;1.57;;;1.43;;
5225;SDS011;2632;51.666;7.146;2022-09-29T03:01:46;2.00;;;1.60;;
5225;SDS011;2632;51.666;7.146;2022-09-29T03:04:17;3.47;;;1.67;;
5225;SDS011;2632;51.666;7.146;2022-09-29T03:06:46;4.13;;;1.83;;
5225;SDS011;2632;51.666;7.146;2022-09-29T03:09:13;3.40;;;1.97;;
5225;SDS011;2632;51.666;7.146;2022-09-29T03:11:40;4.87;;;1.77;;
5225;SDS011;2632;51.666;7.146;2022-09-29T03:14:06;3.47;;;1.37;;
5225;SDS011;2632;51.666;7.146;2022-09-29T03:16:33;2.27;;;1.70;;
5225;SDS011;2632;51.666;7.146;2022-09-29T03:19:00;2.53;;;1.60;;
5225;SDS011;2632;51.666;7.146;2022-09-29T03:21:27;3.70;;;1.60;;
5225;SDS011;2632;51.666;7.146;2022-09-29T03:23:54;2.23;;;1.70;;
5225;SDS011;2632;51.666;7.146;2022-09-29T03:26:23;1.90;;;1.63;;
5225;SDS011;2632;51.666;7.146;2022-09-29T03:28:50;1.50;;;1.40;;
5225;SDS011;2632;51.666;7.146;2022-09-29T03:31:17;3.90;;;2.30;;
5225;SDS011;2632;51.666;7.146;2022-09-29T03:33:44;2.50;;;1.53;;
5225;SDS011;2632;51.666;7.146;2022-09-29T03:36:10;2.40;;;1.80;;
5225;SDS011;2632;51.666;7.146;2022-09-29T03:38:37;9.90;;;2.53;;
5225;SDS011;2632;51.666;7.146;2022-09-29T03:41:04;2.37;;;1.60;;
5225;SDS011;2632;51.666;7.146;2022-09-29T03:43:32;7.10;;;1.63;;
5225;SDS011;2632;51.666;7.146;2022-09-29T03:45:58;7.10;;;1.63;;
5225;SDS011;2632;51.666;7.146;2022-09-29T03:48:25;4.33;;;1.93;;
5225;SDS011;2632;51.666;7.146;2022-09-29T03:50:56;1.40;;;1.30;;
5225;SDS011;2632;51.666;7.146;2022-09-29T03:53:24;6.63;;;1.80;;
5225;SDS011;2632;51.666;7.146;2022-09-29T03:55:50;4.00;;;1.90;;
5225;SDS011;2632;51.666;7.146;2022-09-29T03:58:17;2.73;;;2.10;;
5225;SDS011;2632;51.666;7.146;2022-09-29T04:00:46;3.00;;;1.50;;
5225;SDS011;2632;51.666;7.146;2022-09-29T04:03:13;3.43;;;1.90;;
5225;SDS011;2632;51.666;7.146;2022-09-29T04:05:40;1.50;;;1.40;;
5225;SDS011;2632;51.666;7.146;2022-09-29T04:08:07;2.70;;;1.50;;
5225;SDS011;2632;51.666;7.146;2022-09-29T04:10:34;2.70;;;1.93;;
5225;SDS011;2632;51.666;7.146;2022-09-29T04:13:01;1.60;;;1.50;;
5225;SDS011;2632;51.666;7.146;2022-09-29T04:15:29;2.30;;;1.73;;
5225;SDS011;2632;51.666;7.146;2022-09-29T04:17:55;1.47;;;1.37;;
5225;SDS011;2632;51.666;7.146;2022-09-29T04:20:22;2.50;;;1.80;;
5225;SDS011;2632;51.666;7.146;2022-09-29T04:22:49;2.17;;;1.87;;
5225;SDS011;2632;51.666;7.146;2022-09-29T04:25:15;2.70;;;1.70;;
5225;SDS011;2632;51.666;7.146;2022-09-29T04:27:42;1.50;;;1.40;;
5225;SDS011;2632;51.666;7.146;2022-09-29T04:30:09;2.30;;;1.50;;
5225;SDS011;2632;51.666;7.146;2022-09-29T04:32:36;2.23;;;1.60;;
5225;SDS011;2632;51.666;7.146;2022-09-29T04:35:03;1.63;;;1.53;;
5225;SDS011;2632;51.666;7.146;2022-09-29T04:37:30;1.90;;;1.70;;
5225;SDS011;2632;51.666;7.146;2022-09-29T04:39:57;3.73;;;1.93;;
5225;SDS011;2632;51.666;7.146;2022-09-29T04:42:23;3.00;;;2.40;;
5225;SDS011;2632;51.666;7.146;2022-09-29T04:44:50;4.60;;;2.00;;
5225;SDS011;2632;51.666;7.146;2022-09-29T04:47:16;2.27;;;1.90;;
5225;SDS011;2632;51.666;7.146;2022-09-29T04:49:43;2.63;;;1.83;;
5225;SDS011;2632;51.666;7.146;2022-09-29T04:52:10;3.70;;;2.10;;
5225;SDS011;2632;51.666;7.146;2022-09-29T04:54:37;3.50;;;1.57;;
5225;SDS011;2632;51.666;7.146;2022-09-29T04:57:04;1.70;;;1.60;;
5225;SDS011;2632;51.666;7.146;2022-09-29T04:59:31;2.00;;;1.53;;
5225;SDS011;2632;51.666;7.146;2022-09-29T05:01:58;5.43;;;1.87;;
5225;SDS011;2632;51.666;7.146;2022-09-29T05:04:25;2.60;;;1.60;;
5225;SDS011;2632;51.666;7.146;2022-09-29T05:06:51;3.63;;;1.87;;
5225;SDS011;2632;51.666;7.146;2022-09-29T05:09:18;1.83;;;1.50;;
5225;SDS011;2632;51.666;7.146;2022-09-29T05:11:49;2.60;;;1.90;;
5225;SDS011;2632;51.666;7.146;2022-09-29T05:14:16;1.50;;;1.30;;
5225;SDS011;2632;51.666;7.146;2022-09-29T05:16:42;2.03;;;1.63;;
5225;SDS011;2632;51.666;7.146;2022-09-29T05:19:09;7.70;;;1.80;;
5225;SDS011;2632;51.666;7.146;2022-09-29T05:21:36;4.40;;;2.00;;
5225;SDS011;2632;51.666;7.146;2022-09-29T05:24:02;2.07;;;1.70;;
5225;SDS011;2632;51.666;7.146;2022-09-29T05:26:29;3.50;;;1.90;;
5225;SDS011;2632;51.666;7.146;2022-09-29T05:28:56;2.50;;;1.83;;
5225;SDS011;2632;51.666;7.146;2022-09-29T05:31:22;2.03;;;1.80;;
5225;SDS011;2632;51.666;7.146;2022-09-29T05:33:49;2.00;;;1.60;;
5225;SDS011;2632;51.666;7.146;2022-09-29T05:36:15;3.13;;;1.80;;
5225;SDS011;2632;51.666;7.146;2022-09-29T05:38:42;2.57;;;1.90;;
5225;SDS011;2632;51.666;7.146;2022-09-29T05:41:09;1.93;;;1.60;;
5225;SDS011;2632;51.666;7.146;2022-09-29T05:43:37;2.13;;;1.83;;
5225;SDS011;2632;51.666;7.146;2022-09-29T05:46:05;2.63;;;1.90;;
5225;SDS011;2632;51.666;7.146;2022-09-29T05:48:33;4.20;;;1.87;;
5225;SDS011;2632;51.666;7.146;2022-09-29T05:51:07;7.13;;;1.90;;
5225;SDS011;2632;51.666;7.146;2022-09-29T05:53:37;3.70;;;1.93;;
5225;SDS011;2632;51.666;7.146;2022-09-29T05:56:04;3.23;;;1.80;;
5225;SDS011;2632;51.666;7.146;2022-09-29T05:58:36;3.20;;;1.80;;
5225;SDS011;2632;51.666;7.146;2022-09-29T06:01:04;3.30;;;1.80;;
5225;SDS011;2632;51.666;7.146;2022-09-29T06:03:32;4.20;;;2.10;;
5225;SDS011;2632;51.666;7.146;2022-09-29T06:06:34;3.00;;;1.80;;
5225;SDS011;2632;51.666;7.146;2022-09-29T06:08:54;3.33;;;1.90;;
5225;SDS011;2632;51.666;7.146;2022-09-29T06:11:23;2.63;;;1.43;;
5225;SDS011;2632;51.666;7.146;2022-09-29T06:13:57;3.77;;;2.17;;
5225;SDS011;2632;51.666;7.146;2022-09-29T06:16:27;2.10;;;1.90;;
5225;SDS011;2632;51.666;7.146;2022-09-29T06:18:55;2.93;;;1.67;;
5225;SDS011;2632;51.666;7.146;2022-09-29T06:21:23;2.27;;;1.70;;
5225;SDS011;2632;51.666;7.146;2022-09-29T06:23:53;2.50;;;1.90;;
5225;SDS011;2632;51.666;7.146;2022-09-29T06:26:21;2.40;;;1.90;;
5225;SDS011;2632;51.666;7.146;2022-09-29T06:28:50;2.50;;;1.63;;
5225;SDS011;2632;51.666;7.146;2022-09-29T06:31:19;2.60;;;1.90;;
5225;SDS011;2632;51.666;7.146;2022-09-29T06:33:47;2.33;;;2.10;;
5225;SDS011;2632;51.666;7.146;2022-09-29T06:36:33;5.00;;;2.00;;
5225;SDS011;2632;51.666;7.146;2022-09-29T06:39:22;1.77;;;1.60;;
5225;SDS011;2632;51.666;7.146;2022-09-29T06:41:48;2.33;;;1.60;;
5225;SDS011;2632;51.666;7.146;2022-09-29T06:44:20;1.40;;;1.30;;
5225;SDS011;2632;51.666;7.146;2022-09-29T06:46:49;3.23;;;1.73;;
5225;SDS011;2632;51.666;7.146;2022-09-29T06:49:16;2.50;;;1.50;;
5225;SDS011;2632;51.666;7.146;2022-09-29T06:51:44;1.77;;;1.67;;
5225;SDS011;2632;51.666;7.146;2022-09-29T06:54:13;4.00;;;2.27;;
5225;SDS011;2632;51.666;7.146;2022-09-29T06:56:40;4.63;;;1.70;;
5225;SDS011;2632;51.666;7.146;2022-09-29T06:59:07;1.60;;;1.50;;
5225;SDS011;2632;51.666;7.146;2022-09-29T07:01:34;1.70;;;1.57;;
5225;SDS011;2632;51.666;7.146;2022-09-29T07:04:00;2.97;;;1.93;;
5225;SDS011;2632;51.666;7.146;2022-09-29T07:06:27;2.27;;;1.67;;
5225;SDS011;2632;51.666;7.146;2022-09-29T07:08:55;4.80;;;1.80;;
5225;SDS011;2632;51.666;7.146;2022-09-29T07:11:23;2.07;;;1.60;;
5225;SDS011;2632;51.666;7.146;2022-09-29T07:13:51;1.53;;;1.40;;
5225;SDS011;2632;51.666;7.146;2022-09-29T07:16:20;2.70;;;1.67;;
5225;SDS011;2632;51.666;7.146;2022-09-29T07:18:49;2.03;;;1.70;;
5225;SDS011;2632;51.666;7.146;2022-09-29T07:21:16;2.33;;;1.70;;
5225;SDS011;2632;51.666;7.146;2022-09-29T07:23:44;1.83;;;1.67;;
5225;SDS011;2632;51.666;7.146;2022-09-29T07:26:12;1.83;;;1.70;;
5225;SDS011;2632;51.666;7.146;2022-09-29T07:28:41;3.97;;;1.80;;
5225;SDS011;2632;51.666;7.146;2022-09-29T07:31:10;2.20;;;1.87;;
5225;SDS011;2632;51.666;7.146;2022-09-29T07:33:41;3.57;;;1.73;;
5225;SDS011;2632;51.666;7.146;2022-09-29T07:36:12;1.97;;;1.43;;
5225;SDS011;2632;51.666;7.146;2022-09-29T07:38:40;4.30;;;1.97;;
5225;SDS011;2632;51.666;7.146;2022-09-29T07:41:08;2.63;;;1.97;;
5225;SDS011;2632;51.666;7.146;2022-09-29T07:43:36;11.80;;;5.43;;
5225;SDS011;2632;51.666;7.146;2022-09-29T07:46:03;2.10;;;1.90;;
5225;SDS011;2632;51.666;7.146;2022-09-29T07:48:31;1.90;;;1.80;;
5225;SDS011;2632;51.666;7.146;2022-09-29T07:50:59;2.83;;;2.33;;
5225;SDS011;2632;51.666;7.146;2022-09-29T07:53:27;2.90;;;2.10;;
5225;SDS011;2632;51.666;7.146;2022-09-29T07:55:54;2.50;;;1.77;;
5225;SDS011;2632;51.666;7.146;2022-09-29T07:58:21;2.60;;;1.90;;
5225;SDS011;2632;51.666;7.146;2022-09-29T08:00:54;2.00;;;1.73;;
5225;SDS011;2632;51.666;7.146;2022-09-29T08:03:20;2.90;;;1.87;;
5225;SDS011;2632;51.666;7.146;2022-09-29T08:05:47;3.13;;;2.10;;
5225;SDS011;2632;51.666;7.146;2022-09-29T08:08:14;3.03;;;1.93;;
5225;SDS011;2632;51.666;7.146;2022-09-29T08:10:40;3.00;;;1.73;;
5225;SDS011;2632;51.666;7.146;2022-09-29T08:13:18;2.20;;;2.00;;
5225;SDS011;2632;51.666;7.146;2022-09-29T08:15:44;2.00;;;1.60;;
5225;SDS011;2632;51.666;7.146;2022-09-29T08:18:14;2.73;;;1.90;;
5225;SDS011;2632;51.666;7.146;2022-09-29T08:20:40;4.53;;;2.07;;
5225;SDS011;2632;51.666;7.146;2022-09-29T08:23:07;2.20;;;2.00;;
5225;SDS011;2632;51.666;7.146;2022-09-29T08:25:33;1.83;;;1.70;;
5225;SDS011;2632;51.666;7.146;2022-09-29T08:28:01;6.80;;;2.40;;
5225;SDS011;2632;51.666;7.146;2022-09-29T08:30:28;3.20;;;2.10;;
5225;SDS011;2632;51.666;7.146;2022-09-29T08:32:54;1.70;;;1.60;;
5225;SDS011;2632;51.666;7.146;2022-09-29T08:35:21;2.50;;;1.80;;
5225;SDS011;2632;51.666;7.146;2022-09-29T08:37:48;3.33;;;1.73;;
5225;SDS011;2632;51.666;7.146;2022-09-29T08:40:15;3.50;;;1.90;;
5225;SDS011;2632;51.666;7.146;2022-09-29T08:42:44;2.93;;;2.40;;
5225;SDS011;2632;51.666;7.146;2022-09-29T08:45:27;10.60;;;6.77;;
5225;SDS011;2632;51.666;7.146;2022-09-29T08:48:01;10.90;;;5.97;;
5225;SDS011;2632;51.666;7.146;2022-09-29T08:50:56;9.50;;;6.07;;
5225;SDS011;2632;51.666;7.146;2022-09-29T08:53:25;9.20;;;6.00;;
5225;SDS011;2632;51.666;7.146;2022-09-29T08:55:59;9.83;;;6.53;;
5225;SDS011;2632;51.666;7.146;2022-09-29T08:58:29;9.03;;;4.93;;
5225;SDS011;2632;51.666;7.146;2022-09-29T09:01:20;10.67;;;5.70;;
5225;SDS011;2632;51.666;7.146;2022-09-29T09:04:12;11.03;;;5.10;;
5225;SDS011;2632;51.666;7.146;2022-09-29T09:06:55;14.30;;;4.10;;
5225;SDS011;2632;51.666;7.146;2022-09-29T09:09:44;6.00;;;3.60;;
5225;SDS011;2632;51.666;7.146;2022-09-29T09:12:17;5.57;;;3.33;;
5225;SDS011;2632;51.666;7.146;2022-09-29T09:14:56;4.87;;;3.30;;
5225;SDS011;2632;51.666;7.146;2022-09-29T09:22:55;7.20;;;3.03;;
5225;SDS011;2632;51.666;7.146;2022-09-29T09:30:45;5.20;;;2.73;;
5225;SDS011;2632;51.666;7.146;2022-09-29T09:36:11;5.00;;;2.70;;
5225;SDS011;2632;51.666;7.146;2022-09-29T09:39:05;8.13;;;2.60;;
5225;SDS011;2632;51.666;7.146;2022-09-29T09:41:42;3.80;;;2.23;;
5225;SDS011;2632;51.666;7.146;2022-09-29T09:44:13;3.57;;;2.13;;
5225;SDS011;2632;51.666;7.146;2022-09-29T09:46:48;3.10;;;2.20;;
5225;SDS011;2632;51.666;7.146;2022-09-29T09:49:25;2.77;;;2.30;;
5225;SDS011;2632;51.666;7.146;2022-09-29T09:52:15;6.30;;;2.50;;
5225;SDS011;2632;51.666;7.146;2022-09-29T09:54:51;7.00;;;2.60;;
5225;SDS011;2632;51.666;7.146;2022-09-29T09:57:37;4.47;;;2.80;;
5225;SDS011;2632;51.666;7.146;2022-09-29T10:00:35;8.07;;;2.47;;
5225;SDS011;2632;51.666;7.146;2022-09-29T10:03:09;2.23;;;1.77;;
5225;SDS011;2632;51.666;7.146;2022-09-29T10:05:40;14.43;;;2.40;;
5225;SDS011;2632;51.666;7.146;2022-09-29T10:10:47;3.23;;;2.20;;
5225;SDS011;2632;51.666;7.146;2022-09-29T10:13:24;3.80;;;2.00;;
5225;SDS011;2632;51.666;7.146;2022-09-29T10:15:55;2.13;;;1.93;;
5225;SDS011;2632;51.666;7.146;2022-09-29T10:18:44;13.83;;;2.60;;
5225;SDS011;2632;51.666;7.146;2022-09-29T10:21:18;9.30;;;2.20;;
5225;SDS011;2632;51.666;7.146;2022-09-29T10:23:54;4.17;;;2.40;;
5225;SDS011;2632;51.666;7.146;2022-09-29T10:26:22;3.93;;;2.30;;
5225;SDS011;2632;51.666;7.146;2022-09-29T10:31:30;9.47;;;2.83;;
5225;SDS011;2632;51.666;7.146;2022-09-29T10:34:12;7.07;;;2.43;;
5225;SDS011;2632;51.666;7.146;2022-09-29T10:36:50;7.07;;;2.57;;
5225;SDS011;2632;51.666;7.146;2022-09-29T10:42:19;17.40;;;7.70;;
5225;SDS011;2632;51.666;7.146;2022-09-29T10:44:50;20.43;;;8.63;;
5225;SDS011;2632;51.666;7.146;2022-09-29T10:47:35;33.80;;;10.10;;
5225;SDS011;2632;51.666;7.146;2022-09-29T10:50:19;30.47;;;10.80;;
5225;SDS011;2632;51.666;7.146;2022-09-29T10:52:49;32.40;;;12.90;;
5225;SDS011;2632;51.666;7.146;2022-09-29T10:55:18;43.10;;;16.50;;
5225;SDS011;2632;51.666;7.146;2022-09-29T10:57:52;59.87;;;23.90;;
5225;SDS011;2632;51.666;7.146;2022-09-29T11:01:02;72.60;;;24.20;;
5225;SDS011;2632;51.666;7.146;2022-09-29T11:03:36;78.17;;;26.57;;
5225;SDS011;2632;51.666;7.146;2022-09-29T11:13:59;72.93;;;26.93;;
5225;SDS011;2632;51.666;7.146;2022-09-29T11:16:33;70.20;;;24.67;;
5225;SDS011;2632;51.666;7.146;2022-09-29T11:19:09;63.37;;;24.10;;
5225;SDS011;2632;51.666;7.146;2022-09-29T11:35:35;54.37;;;20.43;;
5225;SDS011;2632;51.666;7.146;2022-09-29T11:43:46;51.20;;;18.13;;
5225;SDS011;2632;51.666;7.146;2022-09-29T11:46:40;53.73;;;19.90;;
5225;SDS011;2632;51.666;7.146;2022-09-29T11:49:25;47.60;;;18.97;;
5225;SDS011;2632;51.666;7.146;2022-09-29T11:55:14;45.33;;;18.17;;
5225;SDS011;2632;51.666;7.146;2022-09-29T12:09:02;48.60;;;16.00;;
5225;SDS011;2632;51.666;7.146;2022-09-29T12:17:47;37.43;;;15.53;;
5225;SDS011;2632;51.666;7.146;2022-09-29T12:20:20;37.43;;;15.17;;
5225;SDS011;2632;51.666;7.146;2022-09-29T12:22:56;50.50;;;17.70;;
5225;SDS011;2632;51.666;7.146;2022-09-29T12:25:32;42.23;;;15.07;;
5225;SDS011;2632;51.666;7.146;2022-09-29T12:28:08;44.07;;;15.30;;
5225;SDS011;2632;51.666;7.146;2022-09-29T12:33:16;36.57;;;15.23;;
5225;SDS011;2632;51.666;7.146;2022-09-29T12:36:14;39.80;;;14.90;;
5225;SDS011;2632;51.666;7.146;2022-09-29T12:39:01;33.70;;;14.30;;
5225;SDS011;2632;51.666;7.146;2022-09-29T12:41:36;41.77;;;16.23;;
5225;SDS011;2632;51.666;7.146;2022-09-29T12:44:20;34.60;;;12.90;;
5225;SDS011;2632;51.666;7.146;2022-09-29T12:47:15;35.03;;;14.30;;
5225;SDS011;2632;51.666;7.146;2022-09-29T12:52:35;24.77;;;12.20;;
5225;SDS011;2632;51.666;7.146;2022-09-29T12:55:14;29.50;;;12.93;;
5225;SDS011;2632;51.666;7.146;2022-09-29T12:57:50;31.60;;;13.00;;
5225;SDS011;2632;51.666;7.146;2022-09-29T13:00:20;35.47;;;13.67;;
5225;SDS011;2632;51.666;7.146;2022-09-29T13:16:38;21.20;;;9.10;;
5225;SDS011;2632;51.666;7.146;2022-09-29T13:19:15;24.53;;;11.20;;
5225;SDS011;2632;51.666;7.146;2022-09-29T13:27:53;24.50;;;10.30;;
5225;SDS011;2632;51.666;7.146;2022-09-29T13:30:24;31.57;;;11.00;;
5225;SDS011;2632;51.666;7.146;2022-09-29T13:33:09;29.67;;;11.60;;
5225;SDS011;2632;51.666;7.146;2022-09-29T13:35:44;43.50;;;15.00;;
5225;SDS011;2632;51.666;7.146;2022-09-29T13:38:14;25.17;;;10.93;;
5225;SDS011;2632;51.666;7.146;2022-09-29T13:51:41;21.00;;;9.80;;
5225;SDS011;2632;51.666;7.146;2022-09-29T13:59:43;20.90;;;8.80;;
5225;SDS011;2632;51.666;7.146;2022-09-29T14:02:17;22.83;;;10.20;;
5225;SDS011;2632;51.666;7.146;2022-09-29T14:05:05;25.30;;;9.63;;
5225;SDS011;2632;51.666;7.146;2022-09-29T14:10:25;21.43;;;9.13;;
5225;SDS011;2632;51.666;7.146;2022-09-29T14:12:58;22.37;;;9.77;;
5225;SDS011;2632;51.666;7.146;2022-09-29T14:16:06;26.30;;;9.40;;
5225;SDS011;2632;51.666;7.146;2022-09-29T14:18:37;21.07;;;9.03;;
5225;SDS011;2632;51.666;7.146;2022-09-29T14:21:43;20.00;;;8.57;;
5225;SDS011;2632;51.666;7.146;2022-09-29T14:27:24;20.40;;;9.10;;
5225;SDS011;2632;51.666;7.146;2022-09-29T14:29:59;24.63;;;8.63;;
5225;SDS011;2632;51.666;7.146;2022-09-29T14:32:54;19.10;;;8.33;;
5225;SDS011;2632;51.666;7.146;2022-09-29T14:38:03;26.10;;;9.73;;
5225;SDS011;2632;51.666;7.146;2022-09-29T14:40:35;19.63;;;8.93;;
5225;SDS011;2632;51.666;7.146;2022-09-29T14:45:31;29.33;;;8.43;;
5225;SDS011;2632;51.666;7.146;2022-09-29T14:48:50;18.70;;;7.83;;
5225;SDS011;2632;51.666;7.146;2022-09-29T14:51:45;17.87;;;7.80;;
5225;SDS011;2632;51.666;7.146;2022-09-29T14:57:04;19.30;;;8.20;;
5225;SDS011;2632;51.666;7.146;2022-09-29T15:00:03;21.43;;;7.90;;
5225;SDS011;2632;51.666;7.146;2022-09-29T15:02:52;16.50;;;8.00;;
5225;SDS011;2632;51.666;7.146;2022-09-29T15:05:41;20.80;;;7.80;;
5225;SDS011;2632;51.666;7.146;2022-09-29T15:08:27;27.97;;;8.20;;
5225;SDS011;2632;51.666;7.146;2022-09-29T15:10:56;21.17;;;8.57;;
5225;SDS011;2632;51.666;7.146;2022-09-29T15:13:24;22.53;;;8.40;;
5225;SDS011;2632;51.666;7.146;2022-09-29T15:21:17;17.20;;;6.93;;
5225;SDS011;2632;51.666;7.146;2022-09-29T15:24:16;13.37;;;6.90;;
5225;SDS011;2632;51.666;7.146;2022-09-29T15:26:59;20.00;;;7.13;;
5225;SDS011;2632;51.666;7.146;2022-09-29T15:29:31;21.10;;;7.30;;
5225;SDS011;2632;51.666;7.146;2022-09-29T15:31:58;22.43;;;7.67;;
5225;SDS011;2632;51.666;7.146;2022-09-29T15:34:24;15.33;;;6.87;;
5225;SDS011;2632;51.666;7.146;2022-09-29T15:36:51;14.57;;;7.00;;
5225;SDS011;2632;51.666;7.146;2022-09-29T15:42:00;14.77;;;6.57;;
5225;SDS011;2632;51.666;7.146;2022-09-29T15:44:36;15.83;;;6.73;;
5225;SDS011;2632;51.666;7.146;2022-09-29T15:47:03;16.57;;;6.43;;
5225;SDS011;2632;51.666;7.146;2022-09-29T15:49:29;15.30;;;5.77;;
5225;SDS011;2632;51.666;7.146;2022-09-29T15:52:00;15.47;;;6.47;;
5225;SDS011;2632;51.666;7.146;2022-09-29T15:54:30;17.87;;;7.17;;
5225;SDS011;2632;51.666;7.146;2022-09-29T15:57:04;11.83;;;6.50;;
5225;SDS011;2632;51.666;7.146;2022-09-29T15:59:51;19.43;;;6.80;;
5225;SDS011;2632;51.666;7.146;2022-09-29T16:02:20;18.23;;;6.77;;
5225;SDS011;2632;51.666;7.146;2022-09-29T16:05:02;15.77;;;7.67;;
5225;SDS011;2632;51.666;7.146;2022-09-29T16:07:32;20.00;;;6.63;;
5225;SDS011;2632;51.666;7.146;2022-09-29T16:13:00;18.50;;;6.90;;
5225;SDS011;2632;51.666;7.146;2022-09-29T16:15:42;13.57;;;5.93;;
5225;SDS011;2632;51.666;7.146;2022-09-29T16:18:17;16.77;;;8.27;;
5225;SDS011;2632;51.666;7.146;2022-09-29T16:20:48;10.00;;;5.83;;
5225;SDS011;2632;51.666;7.146;2022-09-29T16:23:19;16.30;;;6.77;;
5225;SDS011;2632;51.666;7.146;2022-09-29T16:28:32;13.10;;;6.37;;
5225;SDS011;2632;51.666;7.146;2022-09-29T16:33:28;15.03;;;6.73;;
5225;SDS011;2632;51.666;7.146;2022-09-29T16:36:17;14.50;;;5.87;;
5225;SDS011;2632;51.666;7.146;2022-09-29T16:38:46;19.90;;;7.00;;
5225;SDS011;2632;51.666;7.146;2022-09-29T16:41:26;13.27;;;6.07;;
5225;SDS011;2632;51.666;7.146;2022-09-29T16:44:23;10.93;;;5.70;;
5225;SDS011;2632;51.666;7.146;2022-09-29T16:54:51;13.40;;;5.53;;
5225;SDS011;2632;51.666;7.146;2022-09-29T16:57:29;11.60;;;6.00;;
5225;SDS011;2632;51.666;7.146;2022-09-29T16:59:57;14.20;;;5.97;;
5225;SDS011;2632;51.666;7.146;2022-09-29T17:02:26;13.07;;;6.50;;
5225;SDS011;2632;51.666;7.146;2022-09-29T17:04:53;15.13;;;6.23;;
5225;SDS011;2632;51.666;7.146;2022-09-29T17:07:22;15.83;;;6.00;;
5225;SDS011;2632;51.666;7.146;2022-09-29T17:09:52;12.73;;;5.13;;
5225;SDS011;2632;51.666;7.146;2022-09-29T17:12:21;13.50;;;6.10;;
5225;SDS011;2632;51.666;7.146;2022-09-29T17:14:48;13.07;;;6.03;;
5225;SDS011;2632;51.666;7.146;2022-09-29T17:17:17;7.83;;;3.53;;
5225;SDS011;2632;51.666;7.146;2022-09-29T17:19:54;10.93;;;5.17;;
5225;SDS011;2632;51.666;7.146;2022-09-29T17:24:54;10.80;;;5.60;;
5225;SDS011;2632;51.666;7.146;2022-09-29T17:27:20;10.40;;;4.97;;
5225;SDS011;2632;51.666;7.146;2022-09-29T17:30:07;8.93;;;3.90;;
5225;SDS011;2632;51.666;7.146;2022-09-29T17:32:34;11.00;;;5.97;;
5225;SDS011;2632;51.666;7.146;2022-09-29T17:35:01;10.60;;;5.00;;
5225;SDS011;2632;51.666;7.146;2022-09-29T17:37:28;13.80;;;5.43;;
5225;SDS011;2632;51.666;7.146;2022-09-29T17:39:54;11.03;;;4.90;;
5225;SDS011;2632;51.666;7.146;2022-09-29T17:42:22;9.47;;;3.53;;
5225;SDS011;2632;51.666;7.146;2022-09-29T17:44:50;9.17;;;4.60;;
5225;SDS011;2632;51.666;7.146;2022-09-29T17:47:17;12.53;;;4.70;;
5225;SDS011;2632;51.666;7.146;2022-09-29T17:50:11;13.83;;;5.07;;
5225;SDS011;2632;51.666;7.146;2022-09-29T17:52:50;8.90;;;5.23;;
5225;SDS011;2632;51.666;7.146;2022-09-29T17:55:18;8.37;;;4.23;;
5225;SDS011;2632;51.666;7.146;2022-09-29T17:57:48;11.63;;;5.40;;
5225;SDS011;2632;51.666;7.146;2022-09-29T18:00:21;9.13;;;4.47;;
5225;SDS011;2632;51.666;7.146;2022-09-29T18:02:48;9.37;;;4.50;;
5225;SDS011;2632;51.666;7.146;2022-09-29T18:05:16;13.27;;;4.80;;
5225;SDS011;2632;51.666;7.146;2022-09-29T18:07:50;11.30;;;5.00;;
5225;SDS011;2632;51.666;7.146;2022-09-29T18:10:26;7.10;;;4.53;;
5225;SDS011;2632;51.666;7.146;2022-09-29T18:12:55;7.20;;;4.57;;
5225;SDS011;2632;51.666;7.146;2022-09-29T18:15:23;10.20;;;4.37;;
5225;SDS011;2632;51.666;7.146;2022-09-29T18:17:53;9.50;;;4.50;;
5225;SDS011;2632;51.666;7.146;2022-09-29T18:20:24;8.60;;;4.77;;
5225;SDS011;2632;51.666;7.146;2022-09-29T18:22:52;11.13;;;4.13;;
5225;SDS011;2632;51.666;7.146;2022-09-29T18:25:19;9.17;;;5.07;;
5225;SDS011;2632;51.666;7.146;2022-09-29T18:27:46;11.63;;;4.10;;
5225;SDS011;2632;51.666;7.146;2022-09-29T18:30:19;11.10;;;5.00;;
5225;SDS011;2632;51.666;7.146;2022-09-29T18:32:55;9.87;;;4.10;;
5225;SDS011;2632;51.666;7.146;2022-09-29T18:35:28;11.07;;;4.60;;
5225;SDS011;2632;51.666;7.146;2022-09-29T18:37:57;11.60;;;4.43;;
5225;SDS011;2632;51.666;7.146;2022-09-29T18:40:25;10.30;;;4.73;;
5225;SDS011;2632;51.666;7.146;2022-09-29T18:42:53;13.87;;;4.90;;
5225;SDS011;2632;51.666;7.146;2022-09-29T18:45:25;8.43;;;4.20;;